Time;durP1;ratioP1;P1;durP2;ratioP2;P2;SDS_P1;SDS_P2;PMS_P1;PMS_P2;Temp;Humidity;BMP_temperature;BMP_pressure;BME280_temperature;BME280_humidity;BME280_pressure;Samples;Min_cycle;Max_cycle;Signal;HPM_P1;HPM_P2
2022/10/15 00:01:08;;;;;;;70.43;39.47;;;11.90;99.90;;;;;;5038555;28;20567;-32
2022/10/15 00:03:38;;;;;;;83.43;43.42;;;11.90;99.90;;;;;;5043093;28;20037;-34
2022/10/15 00:06:06;;;;;;;126.55;45.17;;;11.90;99.90;;;;;;5034824;28;20040;-32
2022/10/15 00:08:32;;;;;;;326.35;66.53;;;11.90;99.90;;;;;;5046580;28;20045;-33
2022/10/15 00:11:11;;;;;;;74.35;41.28;;;11.90;99.90;;;;;;5030961;28;20519;-34
2022/10/15 00:13:37;;;;;;;86.07;40.60;;;12.00;99.90;;;;;;5031182;28;20041;-34
2022/10/15 00:16:07;;;;;;;284.33;56.40;;;11.90;99.90;;;;;;5039214;28;20117;-32
2022/10/15 00:18:32;;;;;;;104.45;43.35;;;12.00;99.90;;;;;;5039479;28;20024;-34
2022/10/15 00:20:58;;;;;;;86.35;41.97;;;12.00;99.90;;;;;;5042061;28;20055;-31
2022/10/15 00:23:24;;;;;;;159.57;47.20;;;12.00;99.90;;;;;;5039686;28;20536;-33
2022/10/15 00:25:50;;;;;;;129.23;44.58;;;12.00;99.90;;;;;;5039196;28;20124;-34
2022/10/15 00:28:15;;;;;;;91.65;43.45;;;12.00;99.90;;;;;;5029847;28;20410;-32
2022/10/15 00:30:41;;;;;;;115.03;45.38;;;12.00;99.90;;;;;;5027600;28;20394;-32
2022/10/15 00:33:07;;;;;;;113.97;47.58;;;12.00;99.90;;;;;;5018451;28;20037;-35
2022/10/15 00:35:32;;;;;;;81.68;42.40;;;12.00;99.90;;;;;;5037838;28;20029;-34
2022/10/15 00:37:58;;;;;;;134.55;47.95;;;12.00;99.90;;;;;;5039364;28;20573;-33
2022/10/15 00:40:24;;;;;;;99.85;41.42;;;12.00;99.90;;;;;;5037019;28;20149;-33
2022/10/15 00:42:50;;;;;;;74.57;43.83;;;12.00;99.90;;;;;;5015899;28;20402;-33
2022/10/15 00:45:15;;;;;;;113.93;45.92;;;12.00;99.90;;;;;;5035008;28;20119;-32
2022/10/15 00:47:47;;;;;;;150.20;47.05;;;12.00;99.90;;;;;;5034706;28;20040;-33
2022/10/15 00:50:17;;;;;;;215.52;51.55;;;11.90;99.90;;;;;;5043097;28;20372;-33
2022/10/15 00:53:02;;;;;;;74.65;41.28;;;11.90;99.90;;;;;;5034416;28;20501;-31
2022/10/15 00:55:42;;;;;;;115.03;45.13;;;12.00;99.90;;;;;;5039221;28;20037;-36
2022/10/15 00:58:15;;;;;;;102.55;41.65;;;11.90;99.90;;;;;;5035410;28;20115;-32
2022/10/15 01:00:42;;;;;;;149.35;47.40;;;11.90;99.90;;;;;;5037048;28;20602;-32
2022/10/15 01:03:08;;;;;;;82.38;41.33;;;11.90;99.90;;;;;;5039830;28;20124;-33
2022/10/15 01:05:36;;;;;;;111.07;43.08;;;11.90;99.90;;;;;;5034412;28;20106;-32
2022/10/15 01:08:01;;;;;;;84.47;42.45;;;11.90;99.90;;;;;;5033509;28;20064;-32
2022/10/15 01:10:46;;;;;;;156.82;47.42;;;11.90;99.90;;;;;;5032780;28;20486;-32
2022/10/15 01:13:22;;;;;;;212.43;56.78;;;11.90;99.90;;;;;;5032920;28;20456;-32
2022/10/15 01:16:12;;;;;;;94.85;41.80;;;11.90;99.90;;;;;;5050978;28;20036;-33
2022/10/15 01:18:58;;;;;;;104.50;43.42;;;11.90;99.90;;;;;;5036805;28;20032;-30
2022/10/15 01:21:28;;;;;;;79.38;40.22;;;11.90;99.90;;;;;;5034632;28;20036;-30
2022/10/15 01:24:28;;;;;;;92.63;41.65;;;11.90;99.90;;;;;;5049458;28;20044;-30
2022/10/15 01:27:12;;;;;;;117.30;42.92;;;11.90;99.90;;;;;;5051309;28;20052;-29
2022/10/15 01:30:03;;;;;;;95.07;40.60;;;11.90;99.90;;;;;;5055027;28;20045;-30
2022/10/15 01:32:52;;;;;;;124.30;43.55;;;11.90;99.90;;;;;;5052025;28;20044;-31
2022/10/15 01:35:36;;;;;;;74.50;38.70;;;11.90;99.90;;;;;;5035001;28;20115;-30
2022/10/15 01:38:09;;;;;;;82.80;41.38;;;11.90;99.90;;;;;;5034602;28;20044;-30
2022/10/15 01:41:02;;;;;;;149.07;43.97;;;11.90;99.90;;;;;;5034645;28;20033;-30
2022/10/15 01:43:32;;;;;;;88.80;41.05;;;11.80;99.90;;;;;;5034358;28;20045;-30
2022/10/15 01:46:02;;;;;;;68.90;38.80;;;11.80;99.90;;;;;;5034916;28;20490;-30
2022/10/15 01:48:29;;;;;;;101.47;42.03;;;11.80;99.90;;;;;;5052516;28;20135;-30
2022/10/15 01:50:59;;;;;;;70.60;38.72;;;11.80;99.90;;;;;;5034479;28;20037;-32
2022/10/15 01:53:26;;;;;;;81.13;38.10;;;11.80;99.90;;;;;;5034527;28;20052;-30
2022/10/15 01:55:59;;;;;;;79.40;39.92;;;11.80;99.90;;;;;;5034221;28;20047;-30
2022/10/15 01:58:26;;;;;;;95.43;40.13;;;11.80;99.90;;;;;;5034250;28;20033;-30
2022/10/15 02:00:54;;;;;;;71.57;37.60;;;11.80;99.90;;;;;;5034366;28;20044;-30
2022/10/15 02:03:20;;;;;;;80.38;38.83;;;11.80;99.90;;;;;;5052246;28;20072;-30
2022/10/15 02:06:08;;;;;;;63.50;37.33;;;11.80;99.90;;;;;;5034121;28;20106;-31
2022/10/15 02:09:11;;;;;;;96.47;40.20;;;11.80;99.90;;;;;;5034182;28;20126;-29
2022/10/15 02:12:04;;;;;;;65.43;34.80;;;11.80;99.90;;;;;;5033986;28;20041;-31
2022/10/15 02:14:56;;;;;;;95.38;41.67;;;11.80;99.90;;;;;;5020038;28;20056;-32
2022/10/15 02:17:34;;;;;;;64.13;35.35;;;11.80;99.90;;;;;;5033995;28;20052;-30
2022/10/15 02:20:06;;;;;;;66.60;37.08;;;11.70;99.90;;;;;;5032344;28;20047;-30
2022/10/15 02:22:55;;;;;;;65.88;36.97;;;11.70;99.90;;;;;;5014197;28;20120;-30
2022/10/15 02:25:24;;;;;;;69.72;37.13;;;11.70;99.90;;;;;;5014331;28;20045;-31
2022/10/15 02:27:52;;;;;;;62.28;35.13;;;11.70;99.90;;;;;;5016656;28;20041;-30
2022/10/15 02:30:19;;;;;;;64.82;35.92;;;11.70;99.90;;;;;;5018639;28;20128;-30
2022/10/15 02:32:49;;;;;;;63.22;34.65;;;11.70;99.90;;;;;;5043900;28;20241;-31
2022/10/15 02:35:15;;;;;;;74.28;37.30;;;11.70;99.90;;;;;;5056616;28;20068;-30
2022/10/15 02:37:45;;;;;;;77.82;39.88;;;11.70;99.90;;;;;;5036536;28;20037;-30
2022/10/15 02:40:11;;;;;;;58.40;34.53;;;11.70;99.90;;;;;;5037099;28;20044;-31
2022/10/15 02:42:37;;;;;;;74.97;36.88;;;11.70;99.90;;;;;;5056891;28;20059;-32
2022/10/15 02:45:03;;;;;;;70.88;36.45;;;11.70;99.90;;;;;;5049867;28;20037;-31
2022/10/15 02:47:30;;;;;;;70.75;35.25;;;11.70;99.90;;;;;;5037277;28;20045;-30
2022/10/15 02:49:56;;;;;;;80.35;39.88;;;11.70;99.90;;;;;;5038001;28;20037;-30
2022/10/15 02:52:21;;;;;;;70.22;37.22;;;11.70;99.90;;;;;;5037751;28;20396;-31
2022/10/15 02:54:47;;;;;;;60.03;32.67;;;11.70;99.90;;;;;;5037460;28;20048;-30
2022/10/15 02:57:13;;;;;;;64.55;35.75;;;11.60;99.90;;;;;;5037896;28;20039;-30
2022/10/15 02:59:39;;;;;;;63.35;34.22;;;11.60;99.90;;;;;;5037545;28;20090;-30
2022/10/15 03:02:05;;;;;;;69.57;36.30;;;11.60;99.90;;;;;;5037800;28;20041;-30
2022/10/15 03:04:30;;;;;;;71.93;36.40;;;11.60;99.90;;;;;;5037413;28;20045;-30
2022/10/15 03:06:56;;;;;;;63.42;35.80;;;11.60;99.90;;;;;;5037753;28;20140;-30
2022/10/15 03:09:22;;;;;;;63.15;36.15;;;11.60;99.90;;;;;;5055163;28;20406;-30
2022/10/15 03:11:48;;;;;;;64.82;36.25;;;11.60;99.90;;;;;;5037586;28;20045;-30
2022/10/15 03:14:13;;;;;;;63.25;36.50;;;11.60;99.90;;;;;;5020517;28;20525;-30
2022/10/15 03:16:39;;;;;;;62.05;34.30;;;11.60;99.90;;;;;;5037611;28;20033;-30
2022/10/15 03:19:05;;;;;;;62.10;34.50;;;11.60;99.90;;;;;;5037543;28;20032;-30
2022/10/15 03:21:31;;;;;;;56.45;33.50;;;11.60;99.90;;;;;;5037010;28;20037;-30
2022/10/15 03:23:57;;;;;;;57.25;33.80;;;11.60;99.90;;;;;;5037369;28;20041;-30
2022/10/15 03:26:23;;;;;;;57.60;33.63;;;11.60;99.90;;;;;;5037275;28;20041;-30
2022/10/15 03:28:49;;;;;;;63.45;35.17;;;11.60;99.90;;;;;;5037014;28;20494;-30
2022/10/15 03:31:14;;;;;;;65.97;35.03;;;11.60;99.90;;;;;;5036921;28;20134;-30
2022/10/15 03:33:40;;;;;;;59.72;33.92;;;11.60;99.90;;;;;;5036879;28;20194;-31
2022/10/15 03:36:06;;;;;;;54.58;33.30;;;11.60;99.90;;;;;;5036768;28;20112;-30
2022/10/15 03:38:32;;;;;;;51.15;32.45;;;11.60;99.90;;;;;;5054637;28;20390;-31
2022/10/15 03:40:58;;;;;;;58.17;34.72;;;11.60;99.90;;;;;;5036650;28;20037;-31
2022/10/15 03:43:24;;;;;;;56.60;34.78;;;11.60;99.90;;;;;;5037014;28;20052;-30
2022/10/15 03:45:50;;;;;;;58.53;33.85;;;11.60;99.90;;;;;;5036966;28;20486;-30
2022/10/15 03:48:16;;;;;;;57.03;33.08;;;11.60;99.90;;;;;;5036624;28;20032;-30
2022/10/15 03:50:42;;;;;;;57.00;33.25;;;11.60;99.90;;;;;;5034071;28;20040;-30
2022/10/15 03:53:08;;;;;;;54.45;32.72;;;11.60;99.90;;;;;;5016896;28;20044;-30
2022/10/15 03:55:34;;;;;;;55.88;34.72;;;11.60;99.90;;;;;;5016944;28;20060;-31
2022/10/15 03:57:59;;;;;;;56.92;32.72;;;11.60;99.90;;;;;;5046724;28;20095;-30
2022/10/15 04:00:25;;;;;;;56.97;33.90;;;11.50;99.90;;;;;;5056761;28;20037;-30
2022/10/15 04:02:51;;;;;;;55.75;34.28;;;11.50;99.90;;;;;;5056419;28;20048;-31
2022/10/15 04:05:16;;;;;;;55.08;33.05;;;11.50;99.90;;;;;;5056665;28;20423;-31
2022/10/15 04:07:42;;;;;;;61.58;36.47;;;11.50;99.90;;;;;;5056256;28;20052;-31
2022/10/15 04:10:08;;;;;;;55.03;33.90;;;11.50;99.90;;;;;;5056185;28;20101;-31
2022/10/15 04:12:34;;;;;;;55.40;34.15;;;11.50;99.90;;;;;;5073795;28;20051;-31
2022/10/15 04:15:00;;;;;;;54.63;34.20;;;11.50;99.90;;;;;;5056087;28;20033;-30
2022/10/15 04:17:28;;;;;;;61.15;33.40;;;11.50;99.90;;;;;;5056447;28;20043;-30
2022/10/15 04:19:54;;;;;;;65.97;35.55;;;11.50;99.90;;;;;;5055870;28;20046;-30
2022/10/15 04:22:20;;;;;;;59.40;34.83;;;11.40;99.90;;;;;;5036861;28;20032;-30
2022/10/15 04:24:46;;;;;;;58.60;35.58;;;11.40;99.90;;;;;;5036112;28;20521;-30
2022/10/15 04:27:12;;;;;;;63.53;37.35;;;11.40;99.90;;;;;;5035894;28;20502;-30
2022/10/15 04:29:37;;;;;;;52.05;34.15;;;11.40;99.90;;;;;;5019591;28;20084;-31
2022/10/15 04:32:03;;;;;;;54.15;34.42;;;11.30;99.90;;;;;;5036100;28;20080;-31
2022/10/15 04:34:29;;;;;;;56.88;35.70;;;11.30;99.90;;;;;;5035649;28;20051;-30
2022/10/15 04:36:55;;;;;;;53.95;33.53;;;11.20;99.90;;;;;;5036125;28;20033;-31
2022/10/15 04:39:21;;;;;;;63.20;35.90;;;11.20;99.90;;;;;;5035718;28;20041;-30
2022/10/15 04:41:47;;;;;;;54.40;32.97;;;11.10;99.90;;;;;;5035662;28;20041;-30
2022/10/15 04:44:13;;;;;;;57.20;34.88;;;11.00;99.90;;;;;;5035665;28;20120;-30
2022/10/15 04:46:41;;;;;;;58.00;35.38;;;11.00;99.90;;;;;;5035600;28;20119;-30
2022/10/15 04:49:07;;;;;;;58.45;33.55;;;10.90;99.90;;;;;;5035500;28;20033;-31
2022/10/15 04:51:33;;;;;;;59.45;35.47;;;10.90;99.90;;;;;;5053095;28;20148;-31
2022/10/15 04:54:00;;;;;;;59.90;36.22;;;10.80;99.90;;;;;;5035525;28;20171;-30
2022/10/15 04:56:26;;;;;;;56.28;33.10;;;10.80;99.90;;;;;;5035370;28;20045;-30
2022/10/15 04:58:52;;;;;;;64.57;37.88;;;10.80;99.90;;;;;;5035354;28;20040;-31
2022/10/15 05:01:19;;;;;;;84.15;42.72;;;10.80;99.90;;;;;;5035179;28;20098;-31
2022/10/15 05:03:47;;;;;;;72.25;39.47;;;10.80;99.90;;;;;;5035487;28;20099;-31
2022/10/15 05:06:20;;;;;;;72.90;40.83;;;10.80;99.90;;;;;;5018845;28;20047;-30
2022/10/15 05:08:47;;;;;;;71.07;39.38;;;10.90;99.90;;;;;;5035480;28;20502;-30
2022/10/15 05:11:16;;;;;;;74.70;41.60;;;10.90;99.90;;;;;;5035347;28;20040;-32
2022/10/15 05:13:42;;;;;;;72.95;40.95;;;10.90;99.90;;;;;;5018470;28;20041;-30
2022/10/15 05:16:13;;;;;;;70.40;39.38;;;10.90;99.90;;;;;;5035319;28;20518;-31
2022/10/15 05:18:41;;;;;;;71.22;40.67;;;10.90;99.90;;;;;;5034954;28;20041;-30
2022/10/15 05:21:07;;;;;;;68.35;39.42;;;10.90;99.90;;;;;;5052574;28;20036;-31
2022/10/15 05:23:33;;;;;;;76.93;41.63;;;10.90;99.90;;;;;;5034705;28;20053;-31
2022/10/15 05:26:00;;;;;;;78.88;40.20;;;10.90;99.90;;;;;;5035085;28;20049;-30
2022/10/15 05:28:25;;;;;;;65.15;38.85;;;10.90;99.90;;;;;;5035074;28;20033;-30
2022/10/15 05:30:51;;;;;;;68.82;38.65;;;10.90;99.90;;;;;;5033470;28;20037;-30
2022/10/15 05:33:17;;;;;;;73.65;40.40;;;10.90;99.90;;;;;;5034372;28;20033;-30
2022/10/15 05:35:43;;;;;;;70.22;39.90;;;10.90;99.90;;;;;;5033123;28;20040;-31
2022/10/15 05:38:08;;;;;;;74.22;41.95;;;10.90;99.90;;;;;;5033733;28;20041;-30
2022/10/15 05:40:34;;;;;;;79.63;44.95;;;10.90;99.90;;;;;;5032700;28;20068;-30
2022/10/15 05:43:00;;;;;;;81.00;44.33;;;10.90;99.90;;;;;;5032818;28;20043;-31
2022/10/15 05:45:26;;;;;;;77.78;42.58;;;10.90;99.90;;;;;;5032718;28;20041;-30
2022/10/15 05:47:55;;;;;;;76.82;42.85;;;10.90;99.90;;;;;;5032824;28;20044;-30
2022/10/15 05:50:21;;;;;;;79.88;40.95;;;11.00;99.90;;;;;;5032551;28;20041;-31
2022/10/15 05:52:47;;;;;;;76.18;41.40;;;11.00;99.90;;;;;;5033171;28;20502;-31
2022/10/15 05:55:14;;;;;;;83.65;42.97;;;11.00;99.90;;;;;;5034290;28;20048;-30
2022/10/15 05:57:40;;;;;;;74.97;41.55;;;11.10;99.90;;;;;;5034494;28;20041;-31
2022/10/15 06:00:07;;;;;;;73.85;40.33;;;11.10;99.90;;;;;;5034600;28;20363;-30
2022/10/15 06:02:33;;;;;;;75.55;41.05;;;11.10;99.90;;;;;;5034062;28;20037;-30
2022/10/15 06:04:59;;;;;;;68.97;40.03;;;11.10;99.90;;;;;;5034375;28;20040;-30
2022/10/15 06:07:25;;;;;;;75.10;41.75;;;11.20;99.90;;;;;;5034286;28;20041;-30
2022/10/15 06:09:51;;;;;;;78.35;40.42;;;11.20;99.90;;;;;;5034415;28;20478;-31
2022/10/15 06:12:16;;;;;;;75.25;42.42;;;11.20;99.90;;;;;;5034429;28;20106;-31
2022/10/15 06:14:42;;;;;;;77.15;43.60;;;11.20;99.90;;;;;;5034311;28;20163;-31
2022/10/15 06:17:08;;;;;;;73.97;40.47;;;11.20;99.90;;;;;;5034352;28;20511;-31
2022/10/15 06:19:34;;;;;;;83.07;44.38;;;11.20;99.90;;;;;;5034386;28;20041;-30
2022/10/15 06:21:59;;;;;;;82.63;42.05;;;11.30;99.90;;;;;;5033504;28;20124;-30
2022/10/15 06:24:25;;;;;;;82.22;42.90;;;11.20;99.90;;;;;;5032857;28;20043;-31
2022/10/15 06:26:51;;;;;;;78.65;41.13;;;11.30;99.90;;;;;;5033297;28;20091;-31
2022/10/15 06:29:16;;;;;;;77.93;41.58;;;11.30;99.90;;;;;;5033406;28;20048;-30
2022/10/15 06:31:44;;;;;;;79.95;41.35;;;11.40;99.90;;;;;;5033427;28;20483;-31
2022/10/15 06:34:10;;;;;;;87.97;42.33;;;11.40;99.90;;;;;;5016487;28;20490;-31
2022/10/15 06:36:37;;;;;;;75.82;40.25;;;11.40;99.90;;;;;;5032916;28;20044;-31
2022/10/15 06:39:03;;;;;;;73.53;39.13;;;11.50;99.90;;;;;;5033255;28;20501;-30
2022/10/15 06:41:28;;;;;;;77.07;41.28;;;11.50;99.90;;;;;;5032865;28;20040;-31
2022/10/15 06:43:54;;;;;;;79.03;40.80;;;11.50;99.90;;;;;;5016334;28;20048;-31
2022/10/15 06:46:20;;;;;;;80.25;40.20;;;11.60;99.90;;;;;;5033237;28;20041;-31
2022/10/15 06:48:45;;;;;;;76.07;39.08;;;11.60;99.90;;;;;;5033352;28;20478;-30
2022/10/15 06:51:12;;;;;;;64.63;37.35;;;11.60;99.90;;;;;;5033080;28;20501;-31
2022/10/15 06:53:41;;;;;;;72.15;40.72;;;11.70;99.90;;;;;;5032950;28;20055;-31
2022/10/15 06:56:07;;;;;;;73.65;40.28;;;11.70;99.90;;;;;;5032759;28;20029;-30
2022/10/15 06:58:32;;;;;;;74.05;42.33;;;11.80;99.90;;;;;;5032766;28;20037;-31
2022/10/15 07:01:03;;;;;;;61.28;39.95;;;11.80;99.90;;;;;;5033095;28;20095;-30
2022/10/15 07:03:28;;;;;;;66.43;39.75;;;11.80;99.90;;;;;;5033067;28;20045;-30
2022/10/15 07:05:54;;;;;;;68.38;40.97;;;11.80;99.90;;;;;;5032439;28;20123;-31
2022/10/15 07:08:20;;;;;;;78.60;44.15;;;11.90;99.90;;;;;;5032962;28;20033;-31
2022/10/15 07:10:46;;;;;;;68.80;40.25;;;11.90;99.90;;;;;;5032417;28;20041;-30
2022/10/15 07:13:13;;;;;;;68.10;39.97;;;12.00;99.90;;;;;;5033280;28;20091;-31
2022/10/15 07:15:38;;;;;;;74.40;42.13;;;12.00;99.90;;;;;;5036248;28;20048;-31
2022/10/15 07:18:04;;;;;;;66.50;40.92;;;12.00;99.90;;;;;;5035878;28;20379;-30
2022/10/15 07:20:31;;;;;;;74.05;42.80;;;12.10;99.90;;;;;;5020396;28;137843;-31
2022/10/15 07:22:57;;;;;;;72.32;43.95;;;12.10;99.90;;;;;;5049534;28;20045;-31
2022/10/15 07:25:24;;;;;;;61.97;40.75;;;12.20;99.90;;;;;;5037070;28;20041;-30
2022/10/15 07:27:50;;;;;;;73.47;42.70;;;12.20;99.90;;;;;;5037101;28;20106;-31
2022/10/15 07:30:15;;;;;;;62.55;39.15;;;12.20;99.90;;;;;;5037016;28;20120;-31
2022/10/15 07:32:42;;;;;;;68.05;41.28;;;12.20;99.90;;;;;;5036986;28;20039;-30
2022/10/15 07:35:08;;;;;;;61.85;39.60;;;12.30;99.90;;;;;;5036401;28;20033;-31
2022/10/15 07:37:34;;;;;;;61.55;39.53;;;12.40;99.90;;;;;;5036788;28;20040;-31
2022/10/15 07:40:00;;;;;;;62.05;41.00;;;12.40;99.90;;;;;;5003887;28;20048;-32
2022/10/15 07:42:26;;;;;;;62.05;41.20;;;12.40;99.90;;;;;;5054521;28;20037;-31
2022/10/15 07:44:52;;;;;;;62.03;40.35;;;12.50;99.90;;;;;;5036483;28;20041;-31
2022/10/15 07:47:18;;;;;;;59.75;41.10;;;12.50;99.90;;;;;;5036999;28;20590;-31
2022/10/15 07:49:43;;;;;;;67.80;41.28;;;12.60;99.90;;;;;;5036937;28;20037;-31
2022/10/15 07:52:09;;;;;;;65.97;42.97;;;12.60;99.90;;;;;;5036839;28;20045;-31
2022/10/15 07:54:35;;;;;;;58.05;39.75;;;12.70;99.90;;;;;;5036233;28;20124;-31
2022/10/15 07:57:01;;;;;;;62.30;39.47;;;12.70;99.90;;;;;;5036503;28;20033;-31
2022/10/15 07:59:26;;;;;;;60.88;41.25;;;12.80;99.90;;;;;;5036878;28;20029;-31
2022/10/15 08:01:52;;;;;;;57.58;39.67;;;12.80;99.90;;;;;;5037001;28;20072;-30
2022/10/15 08:04:19;;;;;;;60.97;39.47;;;12.80;99.90;;;;;;5036325;28;20041;-31
2022/10/15 08:06:45;;;;;;;62.95;41.65;;;12.90;99.90;;;;;;5036680;28;20041;-31
2022/10/15 08:09:11;;;;;;;64.32;41.72;;;13.00;99.90;;;;;;5036221;28;20098;-31
2022/10/15 08:11:37;;;;;;;60.58;41.88;;;13.00;99.90;;;;;;5036537;28;20123;-29
2022/10/15 08:14:03;;;;;;;64.53;41.60;;;13.00;99.90;;;;;;5036294;28;20435;-31
2022/10/15 08:16:29;;;;;;;60.38;41.05;;;13.10;99.90;;;;;;5053955;28;20045;-32
2022/10/15 08:18:56;;;;;;;59.22;39.97;;;13.10;99.90;;;;;;5056270;28;20033;-31
2022/10/15 08:21:22;;;;;;;60.40;41.05;;;13.10;99.90;;;;;;5037871;28;20220;-32
2022/10/15 08:23:47;;;;;;;65.63;41.75;;;13.20;99.90;;;;;;5038163;28;20096;-34
2022/10/15 08:26:13;;;;;;;61.22;41.25;;;13.20;99.90;;;;;;5020850;28;20037;-31
2022/10/15 08:28:39;;;;;;;62.20;41.03;;;13.20;99.90;;;;;;5038666;28;20045;-34
2022/10/15 08:31:05;;;;;;;61.90;41.13;;;13.30;99.90;;;;;;5033449;28;20033;-33
2022/10/15 08:33:33;;;;;;;56.53;40.25;;;13.30;99.90;;;;;;5044987;28;20076;-33
2022/10/15 08:35:58;;;;;;;60.78;40.35;;;13.40;99.90;;;;;;5060402;28;20076;-34
2022/10/15 08:38:24;;;;;;;63.28;41.35;;;13.50;99.90;;;;;;5057479;28;20040;-34
2022/10/15 08:40:53;;;;;;;63.03;41.30;;;13.50;99.90;;;;;;5046239;28;20074;-33
2022/10/15 08:43:29;;;;;;;60.53;40.58;;;13.50;99.90;;;;;;5044586;28;20045;-34
2022/10/15 08:45:59;;;;;;;62.42;41.83;;;13.60;99.90;;;;;;5040709;28;20115;-34
2022/10/15 08:48:35;;;;;;;57.03;39.60;;;13.70;99.90;;;;;;5051916;28;20063;-32
2022/10/15 08:51:16;;;;;;;55.90;38.33;;;13.70;99.90;;;;;;5035352;28;20390;-35
2022/10/15 08:53:48;;;;;;;58.80;37.95;;;13.70;99.90;;;;;;5051854;28;20485;-33
2022/10/15 08:56:25;;;;;;;60.55;38.22;;;13.70;99.90;;;;;;5050217;28;20626;-33
2022/10/15 08:59:30;;;;;;;55.58;38.40;;;13.70;99.90;;;;;;5053033;28;20112;-34
2022/10/15 09:01:58;;;;;;;59.28;36.90;;;13.60;99.90;;;;;;5045295;28;20044;-33
2022/10/15 09:04:36;;;;;;;57.90;38.22;;;13.60;99.90;;;;;;5048622;28;20441;-34
2022/10/15 09:07:12;;;;;;;65.30;38.30;;;13.60;99.90;;;;;;5024125;28;20057;-34
2022/10/15 09:10:15;;;;;;;66.13;40.35;;;13.50;99.90;;;;;;5032705;28;20075;-34
2022/10/15 09:13:00;;;;;;;64.93;38.08;;;13.50;99.90;;;;;;5011267;28;20494;-33
2022/10/15 09:15:29;;;;;;;67.22;40.03;;;13.40;99.90;;;;;;5038253;28;20048;-34
2022/10/15 09:17:55;;;;;;;70.30;40.88;;;13.30;99.90;;;;;;5042558;28;20037;-31
2022/10/15 09:20:30;;;;;;;70.05;40.40;;;13.30;99.90;;;;;;5044719;28;20033;-34
2022/10/15 09:22:55;;;;;;;74.72;40.63;;;13.30;99.90;;;;;;5045336;28;20037;-32
2022/10/15 09:25:31;;;;;;;70.88;40.30;;;13.30;99.90;;;;;;5061233;28;20032;-32
2022/10/15 09:28:01;;;;;;;66.45;37.00;;;13.30;99.90;;;;;;5065365;28;20043;-32
2022/10/15 09:30:44;;;;;;;68.30;38.17;;;13.20;99.90;;;;;;5037451;28;20080;-32
2022/10/15 09:33:37;;;;;;;76.83;38.33;;;13.20;99.90;;;;;;5043152;28;20389;-33
2022/10/15 09:36:28;;;;;;;67.38;36.17;;;13.20;99.90;;;;;;5026966;28;20386;-34
2022/10/15 09:39:27;;;;;;;59.72;33.83;;;13.20;99.90;;;;;;5015935;28;20044;-34
2022/10/15 09:42:08;;;;;;;53.95;32.15;;;13.20;99.90;;;;;;5043415;28;20088;-35
2022/10/15 09:44:41;;;;;;;57.97;31.65;;;13.20;99.90;;;;;;5036424;28;20036;-33
2022/10/15 09:47:28;;;;;;;55.83;31.90;;;13.30;99.90;;;;;;5046523;28;20506;-34
2022/10/15 09:49:54;;;;;;;55.55;32.25;;;13.30;99.90;;;;;;5040498;28;20120;-34
2022/10/15 09:52:42;;;;;;;53.08;31.42;;;13.30;99.90;;;;;;5034983;28;20044;-34
2022/10/15 09:55:45;;;;;;;51.17;31.05;;;13.40;99.90;;;;;;5039019;28;20036;-36
2022/10/15 09:58:37;;;;;;;57.03;31.35;;;13.40;99.90;;;;;;5034969;28;20068;-32
2022/10/15 10:01:15;;;;;;;53.25;31.20;;;13.40;99.90;;;;;;5047786;28;20049;-34
2022/10/15 10:03:41;;;;;;;53.38;31.50;;;13.50;99.90;;;;;;5033296;28;20395;-33
2022/10/15 10:06:10;;;;;;;48.92;29.85;;;13.50;99.90;;;;;;5042357;28;20074;-34
2022/10/15 10:08:51;;;;;;;45.00;28.48;;;13.60;99.90;;;;;;5037268;28;20036;-34
2022/10/15 10:13:59;;;;;;;50.08;29.55;;;13.70;99.90;;;;;;5030628;28;20514;-25
2022/10/15 10:16:26;;;;;;;45.55;28.73;;;13.90;99.90;;;;;;5013383;28;20047;-29
2022/10/15 10:19:12;;;;;;;40.05;26.35;;;14.10;99.90;;;;;;5014493;28;20038;-28
2022/10/15 10:21:41;;;;;;;41.67;27.67;;;14.30;99.90;;;;;;5014677;28;20068;-28
2022/10/15 10:24:27;;;;;;;37.58;25.85;;;14.40;99.90;;;;;;5014645;28;20041;-29
2022/10/15 10:26:53;;;;;;;39.00;25.60;;;14.50;99.90;;;;;;5014691;28;20060;-28
2022/10/15 10:29:20;;;;;;;41.00;27.10;;;14.60;99.90;;;;;;5014426;28;20084;-28
2022/10/15 10:31:50;;;;;;;32.85;23.90;;;14.70;99.90;;;;;;5014387;28;20405;-29
2022/10/15 10:34:20;;;;;;;35.97;26.02;;;14.80;99.90;;;;;;5014259;28;20042;-28
2022/10/15 10:36:51;;;;;;;34.55;23.90;;;15.00;99.90;;;;;;5031771;28;20048;-28
2022/10/15 10:39:32;;;;;;;31.33;22.45;;;15.10;99.90;;;;;;5014156;28;20107;-28
2022/10/15 10:41:59;;;;;;;30.73;23.13;;;15.30;99.90;;;;;;5014085;28;20044;-28
2022/10/15 10:44:34;;;;;;;33.40;23.30;;;15.40;99.90;;;;;;5014508;28;20394;-29
2022/10/15 10:47:08;;;;;;;31.83;22.67;;;15.30;99.90;;;;;;5014025;28;20088;-28
2022/10/15 10:49:44;;;;;;;28.25;21.45;;;15.30;99.90;;;;;;5017665;28;20084;-28
2022/10/15 10:52:30;;;;;;;31.30;23.25;;;15.30;99.90;;;;;;5018174;28;20533;-29
2022/10/15 10:55:16;;;;;;;34.05;23.85;;;15.20;99.90;;;;;;5018633;28;20451;-28
2022/10/15 10:57:55;;;;;;;29.10;23.48;;;15.20;99.90;;;;;;5017747;28;20100;-28
2022/10/15 11:00:42;;;;;;;28.77;22.00;;;15.30;99.90;;;;;;5036044;28;20053;-29
2022/10/15 11:03:32;;;;;;;27.77;21.65;;;15.30;99.90;;;;;;5018039;28;20041;-28
2022/10/15 11:06:19;;;;;;;26.23;19.52;;;15.40;99.90;;;;;;5018025;28;20037;-27
2022/10/15 11:08:54;;;;;;;25.17;19.48;;;15.40;99.90;;;;;;5035539;28;20041;-28
2022/10/15 11:11:48;;;;;;;22.65;19.00;;;15.30;99.90;;;;;;5018073;28;20045;-28
2022/10/15 11:14:25;;;;;;;22.10;17.27;;;15.20;99.90;;;;;;4995038;28;20061;-28
2022/10/15 11:16:59;;;;;;;26.00;19.05;;;15.20;99.90;;;;;;5018258;28;20398;-28
2022/10/15 11:19:58;;;;;;;25.30;18.83;;;15.20;99.90;;;;;;5019044;28;20076;-28
2022/10/15 11:22:43;;;;;;;23.38;17.58;;;15.20;99.90;;;;;;5019371;28;20041;-29
2022/10/15 11:25:33;;;;;;;22.40;18.02;;;15.10;99.90;;;;;;5019274;28;20048;-30
2022/10/15 11:28:25;;;;;;;23.30;17.38;;;15.10;99.90;;;;;;5018744;28;20272;-28
2022/10/15 11:31:22;;;;;;;25.50;19.05;;;15.10;99.90;;;;;;5036268;28;20041;-28
2022/10/15 11:34:00;;;;;;;21.35;17.50;;;15.10;99.90;;;;;;5017548;28;20041;-30
2022/10/15 11:36:58;;;;;;;24.83;19.33;;;15.10;99.90;;;;;;5036099;28;20046;-28
2022/10/15 11:39:53;;;;;;;24.92;19.45;;;15.20;99.90;;;;;;4992757;28;20050;-28
2022/10/15 11:42:48;;;;;;;22.98;18.27;;;15.20;99.90;;;;;;5018113;28;20088;-29
2022/10/15 11:45:14;;;;;;;21.92;17.75;;;15.30;99.90;;;;;;4996741;28;20550;-29
2022/10/15 11:47:55;;;;;;;23.75;18.88;;;15.30;99.90;;;;;;5017787;28;20128;-31
2022/10/15 11:50:27;;;;;;;25.25;18.60;;;15.30;99.90;;;;;;5035387;28;20037;-29
2022/10/15 11:53:20;;;;;;;24.60;18.30;;;15.30;99.90;;;;;;5001361;28;20048;-28
2022/10/15 11:55:57;;;;;;;26.90;20.25;;;15.40;99.90;;;;;;4987846;28;20057;-29
2022/10/15 11:59:04;;;;;;;25.83;19.10;;;15.50;99.90;;;;;;5035377;28;20046;-28
2022/10/15 12:01:42;;;;;;;24.02;17.42;;;15.60;99.90;;;;;;4984980;28;20049;-29
2022/10/15 12:04:29;;;;;;;25.75;19.10;;;15.70;99.90;;;;;;5001549;28;20512;-28
2022/10/15 12:06:57;;;;;;;22.83;17.55;;;15.70;99.90;;;;;;5035067;28;20041;-30
2022/10/15 12:09:33;;;;;;;22.00;17.00;;;15.70;99.90;;;;;;5017172;28;20055;-29
2022/10/15 12:12:18;;;;;;;24.10;18.50;;;15.70;99.90;;;;;;5017326;28;20129;-29
2022/10/15 12:15:15;;;;;;;25.55;18.63;;;15.70;99.90;;;;;;5000917;28;20041;-28
2022/10/15 12:18:11;;;;;;;26.33;18.88;;;15.70;99.90;;;;;;5017151;28;20497;-27
2022/10/15 12:20:41;;;;;;;25.85;21.23;;;15.60;99.90;;;;;;5016645;28;20081;-28
2022/10/15 12:23:41;;;;;;;26.77;19.50;;;15.60;99.90;;;;;;5017014;28;20095;-30
2022/10/15 12:26:28;;;;;;;22.63;18.30;;;15.60;99.90;;;;;;5034322;28;20065;-27
2022/10/15 12:28:56;;;;;;;27.02;19.85;;;15.60;99.90;;;;;;5016281;28;20045;-28
2022/10/15 12:31:23;;;;;;;24.98;19.27;;;15.60;99.90;;;;;;5016621;28;20042;-28
2022/10/15 12:33:50;;;;;;;22.42;19.10;;;15.60;99.90;;;;;;5016848;28;20045;-30
2022/10/15 12:36:29;;;;;;;25.20;19.20;;;15.70;99.90;;;;;;5016323;28;20060;-29
2022/10/15 12:39:06;;;;;;;23.92;19.42;;;15.60;99.90;;;;;;5016770;28;20041;-28
2022/10/15 12:41:40;;;;;;;25.65;19.08;;;15.60;99.90;;;;;;5016167;28;20034;-28
2022/10/15 12:44:31;;;;;;;25.33;19.55;;;15.50;99.90;;;;;;5016020;28;20498;-29
2022/10/15 12:46:59;;;;;;;22.90;18.17;;;15.50;99.90;;;;;;5016800;28;20095;-27
2022/10/15 12:49:31;;;;;;;22.80;18.63;;;15.40;99.90;;;;;;5016762;28;20053;-28
2022/10/15 12:52:41;;;;;;;27.55;20.60;;;15.50;99.90;;;;;;4999876;28;20116;-27